Time;durP1;ratioP1;P1;durP2;ratioP2;P2;SDS_P1;SDS_P2;PMS_P1;PMS_P2;Temp;Humidity;BMP_temperature;BMP_pressure;BME280_temperature;BME280_humidity;BME280_pressure;Samples;Min_cycle;Max_cycle;Signal;HPM_P1;HPM_P2
2023/05/21 00:00:10;;;;;;;19.30;13.05;;;;;;;13.14;82.33;101726.59;4973082;28;20029;-58
2023/05/21 00:02:36;;;;;;;21.30;14.52;;;;;;;13.12;82.74;101720.53;4972415;28;20033;-57
2023/05/21 00:05:01;;;;;;;23.52;17.63;;;;;;;13.09;83.14;101721.94;4971133;28;20030;-57
2023/05/21 00:07:26;;;;;;;45.10;40.45;;;;;;;13.05;83.44;101722.84;4971752;28;20109;-58
2023/05/21 00:09:52;;;;;;;45.35;40.55;;;;;;;13.04;83.27;101719.25;4972990;28;20031;-57
2023/05/21 00:12:17;;;;;;;45.72;40.83;;;;;;;13.01;83.64;101725.41;4972918;28;20089;-57
2023/05/21 00:14:42;;;;;;;42.83;38.30;;;;;;;13.03;83.56;101719.56;4972638;28;20046;-56
2023/05/21 00:17:08;;;;;;;36.08;32.03;;;;;;;13.00;83.78;101711.81;4971689;28;20035;-58
2023/05/21 00:19:33;;;;;;;30.70;26.95;;;;;;;12.96;84.06;101708.81;4972860;28;20038;-57
2023/05/21 00:22:01;;;;;;;30.60;25.30;;;;;;;12.89;84.74;101708.38;4971582;28;20023;-56
2023/05/21 00:24:27;;;;;;;26.50;20.90;;;;;;;12.84;85.39;101705.66;4972495;28;20491;-57
2023/05/21 00:26:52;;;;;;;23.52;17.85;;;;;;;12.77;85.72;101704.09;4972553;28;20029;-57
2023/05/21 00:29:17;;;;;;;21.90;15.95;;;;;;;12.76;86.14;101699.66;4972728;28;20387;-57
2023/05/21 00:31:43;;;;;;;20.15;14.95;;;;;;;12.80;85.79;101694.34;4972576;28;20046;-57
2023/05/21 00:34:08;;;;;;;20.23;15.00;;;;;;;12.72;86.23;101695.03;4969327;28;20027;-56
2023/05/21 00:36:33;;;;;;;21.17;13.60;;;;;;;12.73;86.71;101702.22;4976605;28;20031;-57
2023/05/21 00:38:59;;;;;;;19.52;13.60;;;;;;;12.68;87.49;101702.28;4976684;28;20549;-57
2023/05/21 00:41:24;;;;;;;19.48;13.38;;;;;;;12.67;87.44;101697.84;4976373;28;20039;-57
2023/05/21 00:43:51;;;;;;;19.40;13.48;;;;;;;12.63;87.37;101694.84;4976446;28;20046;-57
2023/05/21 00:46:19;;;;;;;19.55;14.10;;;;;;;12.62;87.90;101690.41;4976379;28;20042;-57
2023/05/21 00:48:46;;;;;;;19.50;13.32;;;;;;;12.59;88.31;101691.84;4976629;28;20050;-58
2023/05/21 00:51:13;;;;;;;19.73;13.90;;;;;;;12.54;88.48;101680.00;4974961;28;20031;-58
2023/05/21 00:53:39;;;;;;;20.10;13.30;;;;;;;12.51;88.57;101681.44;4976347;28;20122;-58
2023/05/21 00:56:05;;;;;;;20.90;13.50;;;;;;;12.51;88.47;101694.50;4976364;28;20110;-58
2023/05/21 00:58:32;;;;;;;19.77;13.88;;;;;;;12.47;88.71;101689.53;4976195;28;20031;-56
2023/05/21 01:01:02;;;;;;;19.35;13.63;;;;;;;12.48;89.17;101691.19;4976408;28;20031;-58
2023/05/21 01:03:29;;;;;;;20.42;13.60;;;;;;;12.47;89.40;101685.91;4976520;28;20038;-57
2023/05/21 01:05:58;;;;;;;20.00;13.52;;;;;;;12.48;89.01;101687.56;4974751;28;20027;-57
2023/05/21 01:08:24;;;;;;;19.55;13.40;;;;;;;12.52;89.27;101693.34;4976118;28;20172;-57
2023/05/21 01:10:51;;;;;;;20.45;13.48;;;;;;;12.51;89.06;101688.94;4975836;28;20030;-57
2023/05/21 01:13:17;;;;;;;19.38;13.40;;;;;;;12.51;89.09;101677.84;4975501;28;20460;-57
2023/05/21 01:15:44;;;;;;;19.48;13.82;;;;;;;12.45;89.21;101689.00;4975920;28;20093;-57
2023/05/21 01:18:09;;;;;;;19.00;13.50;;;;;;;12.47;89.00;101683.97;4975655;28;20026;-57
2023/05/21 01:20:36;;;;;;;19.55;13.65;;;;;;;12.47;89.09;101680.34;4975862;28;20049;-57
2023/05/21 01:23:01;;;;;;;20.30;13.63;;;;;;;12.42;89.33;101689.56;4975709;28;20488;-57
2023/05/21 01:25:27;;;;;;;20.13;13.48;;;;;;;12.45;89.79;101682.63;4975473;28;20463;-57
2023/05/21 01:27:52;;;;;;;19.60;13.60;;;;;;;12.44;89.52;101679.00;4975638;28;20122;-57
2023/05/21 01:30:20;;;;;;;19.83;13.60;;;;;;;12.43;89.66;101676.53;4975549;28;20113;-58
2023/05/21 01:32:57;;;;;;;19.20;13.60;;;;;;;12.37;90.13;101680.53;4975888;28;20049;-57
2023/05/21 01:35:33;;;;;;;19.52;13.48;;;;;;;12.36;89.94;101687.19;4971777;28;20085;-53
2023/05/21 01:38:08;;;;;;;18.92;13.43;;;;;;;12.36;90.17;101681.66;4973821;28;20055;-57
2023/05/21 01:40:40;;;;;;;19.40;13.63;;;;;;;12.40;89.41;101677.13;4975760;28;20031;-57
2023/05/21 01:43:07;;;;;;;20.05;13.57;;;;;;;12.40;90.17;101672.44;4975292;28;20034;-57
2023/05/21 01:45:33;;;;;;;18.98;13.40;;;;;;;12.39;90.00;101669.94;4975482;28;20026;-57
2023/05/21 01:47:59;;;;;;;19.23;13.43;;;;;;;12.40;90.49;101677.13;4974957;28;20411;-57
2023/05/21 01:50:25;;;;;;;19.63;13.68;;;;;;;12.40;90.24;101677.97;4975315;28;20026;-57
2023/05/21 01:52:52;;;;;;;20.13;13.30;;;;;;;12.43;90.30;101669.03;4974865;28;20062;-57
2023/05/21 01:55:23;;;;;;;21.27;13.30;;;;;;;12.42;90.78;101670.16;4975264;28;20086;-56
2023/05/21 01:57:49;;;;;;;19.33;13.27;;;;;;;12.44;90.24;101670.69;4975101;28;20057;-57
2023/05/21 02:00:16;;;;;;;18.75;12.93;;;;;;;12.42;91.12;101669.34;4975240;28;20034;-57
2023/05/21 02:02:41;;;;;;;20.27;13.40;;;;;;;12.45;90.65;101668.75;4975034;28;20085;-57
2023/05/21 02:05:07;;;;;;;20.48;13.45;;;;;;;12.50;90.73;101670.63;4975074;28;20023;-57
2023/05/21 02:07:32;;;;;;;20.60;13.57;;;;;;;12.48;91.19;101659.81;4975124;28;20057;-57
2023/05/21 02:09:58;;;;;;;21.20;13.55;;;;;;;12.51;90.90;101664.78;4974842;28;20062;-57
2023/05/21 02:12:23;;;;;;;20.27;13.27;;;;;;;12.55;90.70;101660.28;4975118;28;20460;-57
2023/05/21 02:14:49;;;;;;;20.25;13.90;;;;;;;12.58;90.39;101651.34;4974567;28;20034;-56
2023/05/21 02:17:16;;;;;;;20.35;13.80;;;;;;;12.59;91.00;101663.28;4974896;28;20110;-57
2023/05/21 02:19:43;;;;;;;19.67;13.65;;;;;;;12.60;91.05;101653.84;4974713;28;20419;-58
2023/05/21 02:22:09;;;;;;;18.98;13.88;;;;;;;12.60;90.88;101653.84;4974930;28;20037;-58
2023/05/21 02:24:35;;;;;;;19.02;13.07;;;;;;;12.65;90.94;101662.06;4974717;28;20026;-58
2023/05/21 02:27:00;;;;;;;20.63;13.75;;;;;;;12.63;91.31;101658.75;4974501;28;20069;-56
2023/05/21 02:29:25;;;;;;;20.73;14.18;;;;;;;12.66;90.79;101662.91;4974579;28;20050;-58
2023/05/21 02:31:51;;;;;;;19.35;13.50;;;;;;;12.68;91.56;101655.94;4974635;28;20498;-57
2023/05/21 02:34:19;;;;;;;19.65;13.45;;;;;;;12.67;91.30;101661.75;4974654;28;20029;-57
2023/05/21 02:36:47;;;;;;;18.63;13.45;;;;;;;12.67;92.04;101664.53;4991403;28;20038;-58
2023/05/21 02:39:12;;;;;;;20.15;13.73;;;;;;;12.69;91.32;101665.06;4994004;28;20092;-57
2023/05/21 02:41:37;;;;;;;19.27;13.35;;;;;;;12.72;91.43;101662.50;4992998;28;20034;-57
2023/05/21 02:44:03;;;;;;;20.35;13.80;;;;;;;12.72;91.62;101648.63;4987353;28;20026;-60
2023/05/21 02:46:28;;;;;;;21.60;13.90;;;;;;;12.76;91.36;101652.47;4993177;28;20080;-59
2023/05/21 02:48:53;;;;;;;21.25;14.55;;;;;;;12.78;91.53;101660.50;4993705;28;20026;-58
2023/05/21 02:51:18;;;;;;;22.10;13.73;;;;;;;12.75;91.44;101653.59;4993605;28;20022;-58
2023/05/21 02:53:44;;;;;;;20.67;13.55;;;;;;;12.78;91.61;101657.72;4993664;28;20031;-59
2023/05/21 02:56:11;;;;;;;19.98;13.68;;;;;;;12.84;91.29;101656.53;4992870;28;20360;-60
2023/05/21 02:58:36;;;;;;;19.85;13.70;;;;;;;12.87;91.47;101643.97;4993629;28;20030;-59
2023/05/21 03:01:02;;;;;;;18.80;13.52;;;;;;;12.87;91.83;101653.13;4993458;28;20022;-59
2023/05/21 03:03:27;;;;;;;20.30;13.90;;;;;;;12.92;91.35;101643.88;4993414;28;20038;-60
2023/05/21 03:05:52;;;;;;;19.67;13.63;;;;;;;12.94;91.30;101636.09;4993393;28;20034;-60
2023/05/21 03:08:17;;;;;;;19.73;14.10;;;;;;;12.95;91.54;101640.50;4993467;28;20026;-59
2023/05/21 03:10:43;;;;;;;19.67;13.82;;;;;;;12.94;91.10;101636.09;4993485;28;20030;-59
2023/05/21 03:13:08;;;;;;;18.98;14.07;;;;;;;12.95;90.93;101637.75;4993000;28;20490;-59
2023/05/21 03:15:34;;;;;;;19.98;13.45;;;;;;;12.91;91.84;101640.28;4993199;28;20050;-56
2023/05/21 03:18:00;;;;;;;19.90;13.75;;;;;;;12.90;92.21;101633.09;4991976;28;20109;-59
2023/05/21 03:20:26;;;;;;;19.48;14.13;;;;;;;12.90;92.29;101633.09;4993625;28;20030;-58
2023/05/21 03:22:53;;;;;;;21.08;14.02;;;;;;;12.89;92.16;101628.66;4993325;28;20042;-58
2023/05/21 03:25:20;;;;;;;20.00;13.30;;;;;;;12.89;92.08;101625.88;4993228;28;20546;-58
2023/05/21 03:27:45;;;;;;;21.95;14.85;;;;;;;12.84;92.88;101627.91;4993003;28;20073;-57
2023/05/21 03:30:11;;;;;;;20.45;14.13;;;;;;;12.83;93.12;101617.94;4992837;28;20050;-56
2023/05/21 03:32:37;;;;;;;19.85;13.73;;;;;;;12.80;93.34;101619.38;4992511;28;20064;-56
2023/05/21 03:35:04;;;;;;;19.30;13.93;;;;;;;12.83;93.53;101620.72;4992826;28;20026;-56
2023/05/21 03:37:29;;;;;;;20.40;14.15;;;;;;;12.83;92.75;101618.78;4993126;28;20026;-58
2023/05/21 03:39:54;;;;;;;20.88;14.25;;;;;;;12.81;92.61;101615.47;4992715;28;20454;-56
2023/05/21 03:42:20;;;;;;;21.45;14.27;;;;;;;12.78;93.79;101616.06;4993041;28;20038;-56
2023/05/21 03:44:45;;;;;;;19.38;13.70;;;;;;;12.74;93.75;101617.81;4988538;28;20085;-56
2023/05/21 03:47:10;;;;;;;21.08;14.13;;;;;;;12.74;94.04;101620.59;4990455;28;20402;-55
2023/05/21 03:49:35;;;;;;;20.00;13.98;;;;;;;12.77;94.13;101631.91;4991502;28;20034;-57
2023/05/21 03:52:01;;;;;;;20.23;13.95;;;;;;;12.76;94.01;101630.25;4992477;28;20058;-59
2023/05/21 03:54:26;;;;;;;19.20;14.07;;;;;;;12.77;93.84;101637.47;4992355;28;20030;-59
2023/05/21 03:56:51;;;;;;;20.40;13.55;;;;;;;12.78;93.86;101629.94;4992489;28;20058;-57
2023/05/21 03:59:17;;;;;;;20.13;13.63;;;;;;;12.78;94.20;101629.94;4992110;28;20480;-58
2023/05/21 04:01:42;;;;;;;21.08;13.48;;;;;;;12.77;94.38;101622.75;4992266;28;20033;-56
2023/05/21 04:04:07;;;;;;;20.30;14.23;;;;;;;12.76;93.89;101626.66;4980968;28;20031;-55
2023/05/21 04:06:33;;;;;;;19.77;13.02;;;;;;;12.75;94.80;101638.91;4971725;28;20034;-56
2023/05/21 04:08:58;;;;;;;20.10;12.95;;;;;;;12.75;94.72;101630.56;4972137;28;20029;-56
2023/05/21 04:11:23;;;;;;;18.83;12.43;;;;;;;12.67;95.37;101626.53;4971136;28;20027;-59
2023/05/21 04:13:49;;;;;;;19.55;12.50;;;;;;;12.66;95.52;101627.63;4972737;28;20030;-57
2023/05/21 04:16:17;;;;;;;20.00;13.23;;;;;;;12.62;95.81;101635.75;4972738;28;20058;-57
2023/05/21 04:18:43;;;;;;;19.90;12.73;;;;;;;12.64;95.56;101641.84;4973145;28;20062;-57
2023/05/21 04:21:08;;;;;;;19.95;13.05;;;;;;;12.64;95.46;101630.72;4973182;28;20412;-57
2023/05/21 04:23:35;;;;;;;20.02;12.82;;;;;;;12.67;95.42;101629.28;4972715;28;20121;-57
2023/05/21 04:26:01;;;;;;;20.27;13.43;;;;;;;12.64;95.91;101632.66;4972541;28;20026;-57
2023/05/21 04:28:27;;;;;;;20.25;13.35;;;;;;;12.64;95.93;101638.22;4972698;28;20034;-57
2023/05/21 04:30:55;;;;;;;19.63;12.55;;;;;;;12.67;95.83;101632.06;4972601;28;20026;-58
2023/05/21 04:33:20;;;;;;;21.23;13.02;;;;;;;12.68;95.92;101632.88;4986071;23;20019;-56
2023/05/21 04:35:48;;;;;;;20.00;13.23;;;;;;;12.68;96.55;101638.44;4989200;28;20037;-57
2023/05/21 04:38:18;;;;;;;22.25;13.23;;;;;;;12.68;96.12;101638.44;5000634;28;20458;-57
2023/05/21 04:40:45;;;;;;;23.02;14.48;;;;;;;12.73;96.13;101641.16;5011942;28;20108;-57
2023/05/21 04:43:10;;;;;;;20.77;13.07;;;;;;;12.71;96.18;101635.88;5001442;28;20434;-57
2023/05/21 04:45:36;;;;;;;20.60;14.00;;;;;;;12.71;95.96;101648.94;4986921;28;20042;-57
2023/05/21 04:48:01;;;;;;;22.15;13.30;;;;;;;12.72;96.14;101643.09;4992368;28;20026;-57
2023/05/21 04:50:29;;;;;;;21.65;13.27;;;;;;;12.77;95.73;101644.97;4992414;28;20093;-58
2023/05/21 04:52:55;;;;;;;21.52;13.50;;;;;;;12.79;96.21;101645.47;4992604;28;20026;-57
2023/05/21 04:55:21;;;;;;;21.05;13.23;;;;;;;12.79;95.82;101637.16;4992213;28;20041;-57
2023/05/21 04:57:47;;;;;;;19.95;13.13;;;;;;;12.76;96.49;101637.75;4992333;28;20027;-58
2023/05/21 05:00:12;;;;;;;19.90;13.80;;;;;;;12.72;96.62;101645.03;4992126;28;20038;-57
2023/05/21 05:02:38;;;;;;;20.92;13.60;;;;;;;12.74;96.47;101645.56;4992259;28;20030;-58
2023/05/21 05:05:03;;;;;;;20.65;13.90;;;;;;;12.73;96.86;101647.50;4992078;28;20101;-59
2023/05/21 05:07:29;;;;;;;21.17;13.70;;;;;;;12.75;96.52;101641.69;4992031;28;20065;-58
2023/05/21 05:09:54;;;;;;;20.38;13.48;;;;;;;12.81;96.70;101640.47;5011991;28;20026;-58
2023/05/21 05:12:19;;;;;;;20.40;13.10;;;;;;;12.84;96.61;101641.81;5011612;28;20116;-59
2023/05/21 05:14:45;;;;;;;20.55;13.32;;;;;;;12.85;96.36;101644.25;5011601;28;20049;-59
2023/05/21 05:17:13;;;;;;;20.27;13.63;;;;;;;12.95;95.60;101641.31;5011614;28;20034;-58
2023/05/21 05:19:38;;;;;;;19.85;13.43;;;;;;;12.93;96.33;101635.28;5013994;28;20429;-58
2023/05/21 05:22:04;;;;;;;20.35;13.70;;;;;;;12.97;95.77;101629.94;5015042;28;20021;-58
2023/05/21 05:24:29;;;;;;;19.38;13.38;;;;;;;12.99;95.59;101629.63;5015097;28;20038;-59
2023/05/21 05:26:54;;;;;;;21.02;13.52;;;;;;;12.95;95.50;101627.44;5013630;28;20096;-58
2023/05/21 05:29:20;;;;;;;21.30;14.40;;;;;;;12.91;96.02;101631.13;5014965;28;20022;-59
2023/05/21 05:31:45;;;;;;;21.05;13.88;;;;;;;12.97;95.96;101634.66;5015245;28;20037;-58
2023/05/21 05:34:10;;;;;;;20.45;13.90;;;;;;;13.03;95.79;101639.00;5014593;28;20176;-58
2023/05/21 05:36:35;;;;;;;20.75;14.75;;;;;;;13.00;96.13;101637.63;5014875;28;20493;-58
2023/05/21 05:39:01;;;;;;;21.58;14.40;;;;;;;13.02;96.39;101638.16;5014791;28;20033;-58
2023/05/21 05:41:26;;;;;;;21.63;14.63;;;;;;;13.09;95.92;101635.00;5014672;28;20034;-58
2023/05/21 05:43:51;;;;;;;21.40;14.52;;;;;;;13.09;95.92;101646.13;4996339;28;20141;-57
2023/05/21 05:46:17;;;;;;;20.90;14.15;;;;;;;13.17;96.13;101644.59;4986833;28;20034;-59
2023/05/21 05:48:42;;;;;;;20.73;13.75;;;;;;;13.23;95.64;101637.81;4994906;28;20502;-58
2023/05/21 05:51:08;;;;;;;20.30;14.25;;;;;;;13.32;95.60;101635.19;4994847;28;20029;-58
2023/05/21 05:53:33;;;;;;;22.80;14.23;;;;;;;13.47;94.62;101634.91;4994699;28;20466;-59
2023/05/21 05:55:58;;;;;;;21.33;14.10;;;;;;;13.52;94.41;101639.56;4994856;28;20026;-59
2023/05/21 05:58:24;;;;;;;20.63;14.60;;;;;;;13.55;94.10;101641.72;4994619;28;20026;-58
2023/05/21 06:00:51;;;;;;;21.17;14.45;;;;;;;13.64;94.25;101641.81;4994960;28;20037;-59
2023/05/21 06:03:16;;;;;;;20.58;14.13;;;;;;;13.68;93.49;101640.09;4993128;28;20057;-59
2023/05/21 06:05:42;;;;;;;21.13;14.15;;;;;;;13.70;93.50;101637.81;5002480;28;20033;-58
2023/05/21 06:08:07;;;;;;;21.15;14.07;;;;;;;13.84;93.47;101644.22;5003847;28;20022;-59
2023/05/21 06:10:33;;;;;;;21.45;14.38;;;;;;;13.93;92.85;101640.72;5001697;28;20137;-59
2023/05/21 06:12:58;;;;;;;20.27;13.77;;;;;;;14.06;92.14;101639.03;4997068;28;20061;-59
2023/05/21 06:15:23;;;;;;;20.95;13.95;;;;;;;14.15;91.36;101639.97;5004416;28;20035;-59
2023/05/21 06:17:48;;;;;;;21.90;14.32;;;;;;;14.30;90.91;101644.38;5003278;28;20030;-59
2023/05/21 06:20:15;;;;;;;20.85;13.82;;;;;;;14.41;90.40;101645.78;5004987;28;20018;-59
2023/05/21 06:22:40;;;;;;;22.30;14.35;;;;;;;14.43;89.88;101631.56;5003486;28;20027;-59
2023/05/21 06:25:06;;;;;;;20.80;14.20;;;;;;;14.54;90.20;101640.50;5003121;28;20050;-59
2023/05/21 06:27:32;;;;;;;22.35;14.13;;;;;;;14.58;89.42;101638.72;5004175;28;20469;-58
2023/05/21 06:29:57;;;;;;;21.75;15.15;;;;;;;14.59;89.16;101632.03;5000805;28;20067;-59
2023/05/21 06:32:23;;;;;;;21.40;14.10;;;;;;;14.72;89.24;101635.94;4999159;28;20044;-58
2023/05/21 06:34:49;;;;;;;21.02;13.82;;;;;;;14.82;88.32;101641.25;5002442;28;20107;-59
2023/05/21 06:37:18;;;;;;;21.10;14.05;;;;;;;15.03;87.47;101647.16;5003170;28;20052;-59
2023/05/21 06:39:43;;;;;;;20.52;14.40;;;;;;;15.22;86.44;101641.38;4999442;28;20109;-56
2023/05/21 06:42:09;;;;;;;22.17;14.95;;;;;;;15.34;85.99;101639.97;4989857;28;20433;-55
2023/05/21 06:44:34;;;;;;;22.02;14.93;;;;;;;15.37;85.53;101640.16;4998942;28;20033;-59
2023/05/21 06:46:59;;;;;;;22.73;15.02;;;;;;;15.29;85.51;101641.75;5004330;28;20025;-58
2023/05/21 06:49:25;;;;;;;20.98;14.43;;;;;;;15.34;85.85;101637.19;5002596;28;20041;-58
2023/05/21 06:51:50;;;;;;;21.48;14.98;;;;;;;15.16;86.46;101634.28;5000215;28;20106;-59
2023/05/21 06:54:16;;;;;;;20.90;14.68;;;;;;;15.27;86.76;101630.09;4993705;28;20050;-59
2023/05/21 06:56:41;;;;;;;21.85;14.70;;;;;;;15.53;85.50;101631.38;4993334;28;20030;-59
2023/05/21 06:59:06;;;;;;;21.45;14.63;;;;;;;15.74;85.18;101632.44;4993600;28;20026;-59
2023/05/21 07:01:33;;;;;;;21.42;14.85;;;;;;;15.84;83.74;101634.16;4993448;28;20026;-60
2023/05/21 07:03:58;;;;;;;21.48;15.32;;;;;;;15.98;83.97;101628.44;4993210;28;20034;-58
2023/05/21 07:06:23;;;;;;;21.60;15.45;;;;;;;15.95;82.96;101625.47;4995266;28;20037;-59
2023/05/21 07:08:49;;;;;;;21.45;14.50;;;;;;;16.02;83.39;101626.66;5003703;28;20570;-59
2023/05/21 07:11:14;;;;;;;20.35;14.40;;;;;;;16.17;82.15;101616.16;5002771;28;20126;-59
2023/05/21 07:13:40;;;;;;;22.42;15.63;;;;;;;16.34;81.23;101616.19;5013061;28;20025;-59
2023/05/21 07:16:05;;;;;;;22.85;14.93;;;;;;;16.52;80.75;101607.84;5012869;28;20033;-58
2023/05/21 07:18:31;;;;;;;21.70;14.80;;;;;;;16.63;80.11;101611.94;5012914;28;20037;-59
2023/05/21 07:20:56;;;;;;;22.30;14.80;;;;;;;16.54;79.16;101605.53;5012494;28;20363;-58
2023/05/21 07:23:21;;;;;;;21.48;14.43;;;;;;;16.52;79.57;101600.28;5012719;28;20146;-59
2023/05/21 07:25:47;;;;;;;22.45;15.70;;;;;;;16.42;79.57;101603.41;5012530;28;20030;-58
2023/05/21 07:28:12;;;;;;;22.67;15.40;;;;;;;16.41;80.01;101604.53;5012729;28;20117;-59
2023/05/21 07:30:37;;;;;;;22.73;15.18;;;;;;;16.52;79.55;101605.06;5012461;28;20033;-58
2023/05/21 07:33:02;;;;;;;23.90;15.40;;;;;;;16.66;78.38;101607.69;5012205;28;20026;-58
2023/05/21 07:35:28;;;;;;;21.52;15.07;;;;;;;16.79;78.02;101601.09;5005069;28;20046;-58
2023/05/21 07:37:53;;;;;;;22.98;14.73;;;;;;;16.91;78.33;101599.59;5012320;28;20026;-60
2023/05/21 07:40:18;;;;;;;21.98;15.18;;;;;;;17.04;77.76;101603.38;5012504;28;20030;-58
2023/05/21 07:42:44;;;;;;;22.00;15.45;;;;;;;17.11;77.63;101609.28;5012152;28;20359;-59
2023/05/21 07:45:09;;;;;;;23.23;14.88;;;;;;;17.08;77.11;101601.56;5012722;28;20037;-58
2023/05/21 07:47:34;;;;;;;22.20;15.13;;;;;;;17.04;77.57;101601.41;5011919;28;20037;-58
2023/05/21 07:50:00;;;;;;;21.58;15.30;;;;;;;17.06;77.90;101598.28;5012168;28;20077;-57
2023/05/21 07:52:25;;;;;;;23.02;14.85;;;;;;;17.21;77.19;101605.31;5012475;28;20083;-57
2023/05/21 07:54:50;;;;;;;23.60;15.73;;;;;;;17.33;76.39;101605.47;5010909;28;20045;-58
2023/05/21 07:57:16;;;;;;;22.05;15.27;;;;;;;17.26;76.74;101599.53;5012245;28;20061;-57
2023/05/21 07:59:41;;;;;;;22.38;15.50;;;;;;;17.27;77.09;101599.22;5012591;28;20037;-58
2023/05/21 08:02:06;;;;;;;23.38;15.23;;;;;;;17.46;76.44;101606.41;5007950;28;20030;-57
2023/05/21 08:04:32;;;;;;;22.13;15.23;;;;;;;17.59;75.42;101612.91;5012129;28;20423;-58
2023/05/21 08:06:57;;;;;;;22.80;16.13;;;;;;;17.61;75.06;101596.63;5010934;28;20030;-58
2023/05/21 08:09:22;;;;;;;21.52;14.93;;;;;;;17.69;75.33;101606.13;5012212;28;20482;-58
2023/05/21 08:11:48;;;;;;;22.15;15.40;;;;;;;17.76;75.05;101604.44;5012306;28;20477;-59
2023/05/21 08:14:13;;;;;;;21.55;15.27;;;;;;;17.73;75.78;101599.50;5012070;28;20026;-59
2023/05/21 08:16:38;;;;;;;22.17;15.25;;;;;;;17.84;75.11;101594.38;5011826;28;20037;-58
2023/05/21 08:19:04;;;;;;;21.85;15.35;;;;;;;17.87;74.26;101602.06;5011700;28;20093;-57
2023/05/21 08:21:29;;;;;;;22.95;15.50;;;;;;;17.88;73.96;101603.72;5010556;28;20402;-58
2023/05/21 08:23:55;;;;;;;24.25;15.52;;;;;;;17.86;73.77;101592.03;5006355;28;20030;-59
2023/05/21 08:26:20;;;;;;;22.52;15.65;;;;;;;18.17;73.79;101604.06;4988417;28;20030;-59
2023/05/21 08:28:46;;;;;;;22.35;15.70;;;;;;;18.43;73.10;101598.25;4989740;28;20030;-57
2023/05/21 08:31:11;;;;;;;22.45;15.90;;;;;;;18.46;72.37;101599.59;4982610;28;20034;-57
2023/05/21 08:33:37;;;;;;;24.23;16.50;;;;;;;18.49;72.00;101594.13;4989465;28;20034;-58
2023/05/21 08:36:06;;;;;;;22.55;16.15;;;;;;;18.52;71.61;101590.59;4990061;28;20046;-57
2023/05/21 08:38:32;;;;;;;22.85;15.27;;;;;;;18.64;71.04;101594.63;4990049;28;20027;-56
2023/05/21 08:41:00;;;;;;;22.85;15.48;;;;;;;18.69;71.08;101586.84;4988530;28;20080;-57
2023/05/21 08:43:27;;;;;;;21.65;15.35;;;;;;;18.56;71.73;101587.97;4990033;28;20064;-56
2023/05/21 08:45:54;;;;;;;22.75;15.02;;;;;;;18.65;71.54;101590.69;4990102;28;20030;-57
2023/05/21 08:48:22;;;;;;;23.10;15.20;;;;;;;18.68;71.63;101581.59;4989945;28;20177;-57
2023/05/21 08:50:49;;;;;;;21.90;15.32;;;;;;;18.86;71.62;101590.63;4992821;28;20062;-57
2023/05/21 08:53:15;;;;;;;22.55;15.38;;;;;;;18.91;71.15;101584.81;4997804;28;20458;-57
2023/05/21 08:55:41;;;;;;;23.15;15.82;;;;;;;18.89;70.03;101573.13;5006415;28;20061;-58
2023/05/21 08:58:06;;;;;;;23.02;15.98;;;;;;;18.97;70.27;101575.06;4993540;28;20092;-58
2023/05/21 09:00:33;;;;;;;22.27;15.73;;;;;;;19.16;69.64;101580.13;4993544;28;20030;-58
2023/05/21 09:03:00;;;;;;;22.10;15.57;;;;;;;19.43;70.13;101579.81;4993254;28;20379;-57
2023/05/21 09:05:27;;;;;;;23.85;16.15;;;;;;;19.41;68.60;101582.97;4993467;28;20065;-57
2023/05/21 09:08:05;;;;;;;22.90;15.13;;;;;;;19.63;69.20;101567.66;4993236;28;20034;-58
2023/05/21 09:10:37;;;;;;;24.48;15.85;;;;;;;19.77;67.45;101564.50;4993688;28;20058;-58
2023/05/21 09:13:03;;;;;;;23.77;16.17;;;;;;;19.88;67.46;101564.88;5000366;28;20037;-58
2023/05/21 09:15:29;;;;;;;23.55;16.13;;;;;;;19.79;67.61;101570.59;5012675;28;20029;-57
2023/05/21 09:17:55;;;;;;;24.23;15.95;;;;;;;20.02;67.47;101567.31;5000280;28;20062;-57
2023/05/21 09:20:27;;;;;;;23.52;15.77;;;;;;;20.13;66.42;101572.41;4993190;28;20068;-58
2023/05/21 09:22:54;;;;;;;22.50;16.92;;;;;;;20.12;65.94;101566.00;4993301;28;20089;-56
2023/05/21 09:25:26;;;;;;;23.55;16.30;;;;;;;20.22;65.71;101561.88;4992459;28;20039;-56
2023/05/21 09:27:52;;;;;;;23.92;16.27;;;;;;;20.42;65.82;101565.69;4986688;28;20034;-57
2023/05/21 09:30:18;;;;;;;23.55;16.15;;;;;;;20.37;64.63;101557.50;4992831;28;20386;-59
2023/05/21 09:32:44;;;;;;;22.65;16.02;;;;;;;20.47;65.16;101564.63;4992818;28;20022;-57
2023/05/21 09:35:11;;;;;;;23.50;17.55;;;;;;;20.24;65.97;101563.16;4993616;28;20085;-58
2023/05/21 09:37:46;;;;;;;23.27;16.08;;;;;;;20.33;65.69;101556.59;4994280;28;20034;-58
2023/05/21 09:40:16;;;;;;;23.15;16.88;;;;;;;20.54;64.57;101554.41;4994163;28;20477;-57
2023/05/21 09:42:50;;;;;;;24.45;17.02;;;;;;;20.77;64.39;101561.47;4993001;28;20049;-58
2023/05/21 09:45:23;;;;;;;23.42;16.48;;;;;;;20.64;64.35;101550.25;4993582;28;20475;-59
2023/05/21 09:47:50;;;;;;;23.30;16.48;;;;;;;20.55;64.85;101558.81;4993726;28;20034;-58
2023/05/21 09:50:25;;;;;;;23.52;16.67;;;;;;;20.51;65.24;101555.13;4993940;28;20218;-59
2023/05/21 09:52:54;;;;;;;23.05;16.38;;;;;;;20.46;64.42;101551.75;4993700;28;20034;-58
2023/05/21 09:55:25;;;;;;;22.98;16.92;;;;;;;20.48;64.90;101550.19;4993937;28;20092;-58
2023/05/21 09:57:51;;;;;;;22.77;16.42;;;;;;;20.66;64.12;101549.88;4993637;28;20157;-59
2023/05/21 10:00:20;;;;;;;23.48;16.67;;;;;;;20.78;64.41;101537.81;4993657;28;20045;-60
2023/05/21 10:02:46;;;;;;;23.10;16.60;;;;;;;20.88;63.67;101549.34;4993430;28;20033;-59
2023/05/21 10:05:13;;;;;;;24.55;16.92;;;;;;;20.68;63.78;101544.72;4993536;28;20061;-59
2023/05/21 10:07:41;;;;;;;23.77;16.40;;;;;;;20.84;65.24;101542.78;4993960;28;20034;-58
2023/05/21 10:10:10;;;;;;;24.00;17.77;;;;;;;20.86;63.68;101540.44;4993495;28;20482;-58
2023/05/21 10:12:37;;;;;;;24.25;18.25;;;;;;;20.89;63.25;101541.72;4992044;28;20514;-58
2023/05/21 10:15:05;;;;;;;24.02;16.95;;;;;;;20.98;63.89;101542.34;4991841;28;20034;-59
2023/05/21 10:17:31;;;;;;;23.80;16.55;;;;;;;20.95;62.78;101531.00;4991840;28;20077;-60
2023/05/21 10:19:58;;;;;;;23.95;16.98;;;;;;;21.02;63.75;101523.59;4991780;28;20054;-56
2023/05/21 10:22:23;;;;;;;24.60;17.35;;;;;;;21.16;62.97;101527.97;4988163;28;20057;-57
2023/05/21 10:24:50;;;;;;;26.23;18.70;;;;;;;21.32;62.30;101527.94;4991600;28;20471;-56
2023/05/21 10:27:17;;;;;;;25.35;18.92;;;;;;;21.60;61.77;101525.06;4992514;28;20081;-59
2023/05/21 10:29:44;;;;;;;24.35;18.10;;;;;;;21.78;60.35;101525.44;4993245;28;20042;-61
2023/05/21 10:32:11;;;;;;;24.73;17.88;;;;;;;21.63;60.75;101526.31;4992763;28;20026;-58
2023/05/21 10:34:37;;;;;;;23.90;18.00;;;;;;;21.49;59.64;101536.00;4992903;28;20055;-58
2023/05/21 10:37:03;;;;;;;25.83;18.50;;;;;;;21.45;60.28;101529.50;4992812;28;20085;-58
2023/05/21 10:39:29;;;;;;;24.98;19.05;;;;;;;21.17;60.94;101529.56;4991327;28;20045;-58
2023/05/21 10:42:08;;;;;;;25.92;18.75;;;;;;;20.97;61.98;101531.47;4991801;28;20394;-57
2023/05/21 10:45:08;;;;;;;26.38;18.60;;;;;;;21.12;61.71;101510.97;4992375;28;20030;-57
2023/05/21 10:48:01;;;;;;;25.30;19.30;;;;;;;21.17;61.72;101513.53;4992252;28;20074;-57
2023/05/21 10:50:36;;;;;;;26.23;20.08;;;;;;;21.18;62.43;101505.88;4992663;28;20042;-57
2023/05/21 10:53:18;;;;;;;24.42;18.60;;;;;;;21.51;62.17;101507.50;4990994;28;20057;-57
2023/05/21 10:56:03;;;;;;;27.73;19.77;;;;;;;21.81;61.37;101496.56;4991280;28;20034;-57
2023/05/21 10:58:34;;;;;;;26.17;19.33;;;;;;;22.01;60.14;101496.59;4992886;28;20030;-58
2023/05/21 11:01:01;;;;;;;26.30;18.67;;;;;;;22.15;59.26;101492.47;4992777;28;20046;-57
2023/05/21 11:03:28;;;;;;;24.52;18.88;;;;;;;22.21;59.36;101493.78;4992535;28;20030;-58
2023/05/21 11:05:55;;;;;;;26.65;19.95;;;;;;;22.13;58.62;101495.63;4992723;28;20035;-58